Cordova, Illinois
Current Conditions -  °F | °C
As of 7:15 AM on Sunday 21 Dec 2014 (Local Time) from KCWI Reporting Station
Broken Clouds Broken Clouds  
Wind Chill: 28°   Ceiling: 900
Heat Index: 34°   Visibility: 4mi
Dew Point: 30°   Wind: 7mph
Humidity: 87%   Direction: 170°S
Pressure: 30.16"   Gusts: NA
Location:  41.68°N, 90.32°W
Report Text: KCWI 211315Z AUTO 17006KT 4SM BKN009 01/M01 A3016 RMK AO1
Loading
Personal Weather Stations






























Interactive Weather Map New forecast layout! Learn more

10-Day Weather Forecast

Advertisements
Track Severe Weather on mobile